sensor_id;sensor_type;location;lat;lon;timestamp;pressure;altitude;pressure_sealevel;temperature;humidity
6853;BME280;3465;42.144;24.722;2023-07-08T00:00:51;149046.03;;;24.46;80.19
6853;BME280;3465;42.144;24.722;2023-07-08T00:03:18;149057.47;;;24.50;80.38
6853;BME280;3465;42.144;24.722;2023-07-08T00:05:44;149054.91;;;24.49;80.30
6853;BME280;3465;42.144;24.722;2023-07-08T00:08:19;149033.41;;;24.41;80.08
6853;BME280;3465;42.144;24.722;2023-07-08T00:10:45;149070.09;;;24.55;79.70
6853;BME280;3465;42.144;24.722;2023-07-08T00:13:11;149062.50;;;24.52;79.73
6853;BME280;3465;42.144;24.722;2023-07-08T00:15:37;149072.66;;;24.56;78.77
6853;BME280;3465;42.144;24.722;2023-07-08T00:18:11;149053.66;;;24.49;79.26
6853;BME280;3465;42.144;24.722;2023-07-08T00:20:43;149061.28;;;24.52;78.94
6853;BME280;3465;42.144;24.722;2023-07-08T00:23:10;149038.44;;;24.43;79.13
6853;BME280;3465;42.144;24.722;2023-07-08T00:25:36;149003.00;;;24.29;78.64
6853;BME280;3465;42.144;24.722;2023-07-08T00:28:02;149021.97;;;24.36;78.84
6853;BME280;3465;42.144;24.722;2023-07-08T00:30:31;149023.25;;;24.37;79.02
6853;BME280;3465;42.144;24.722;2023-07-08T00:32:58;149043.50;;;24.45;78.73
6853;BME280;3465;42.144;24.722;2023-07-08T00:35:31;149034.66;;;24.41;79.41
6853;BME280;3465;42.144;24.722;2023-07-08T00:37:57;149020.75;;;24.36;79.31
6853;BME280;3465;42.144;24.722;2023-07-08T00:40:28;149005.50;;;24.30;79.33
6853;BME280;3465;42.144;24.722;2023-07-08T00:42:54;149006.78;;;24.30;79.51
6853;BME280;3465;42.144;24.722;2023-07-08T00:48:22;148995.41;;;24.26;79.74
6853;BME280;3465;42.144;24.722;2023-07-08T00:50:48;148939.69;;;24.04;80.33
6853;BME280;3465;42.144;24.722;2023-07-08T00:53:33;148957.38;;;24.11;80.49
6853;BME280;3465;42.144;24.722;2023-07-08T00:58:33;148929.53;;;23.99;81.18
6853;BME280;3465;42.144;24.722;2023-07-08T01:01:01;148928.25;;;23.99;80.61
6853;BME280;3465;42.144;24.722;2023-07-08T01:03:30;148897.84;;;23.87;80.94
6853;BME280;3465;42.144;24.722;2023-07-08T01:05:57;148897.84;;;23.87;81.30
6853;BME280;3465;42.144;24.722;2023-07-08T01:08:26;148897.84;;;23.87;81.51
6853;BME280;3465;42.144;24.722;2023-07-08T01:10:58;148902.94;;;23.89;81.26
6853;BME280;3465;42.144;24.722;2023-07-08T01:13:28;148870.00;;;23.76;82.06
6853;BME280;3465;42.144;24.722;2023-07-08T01:15:56;148856.06;;;23.70;82.21
6853;BME280;3465;42.144;24.722;2023-07-08T01:18:22;148845.97;;;23.66;81.74
6853;BME280;3465;42.144;24.722;2023-07-08T01:20:49;148856.06;;;23.70;81.81
6853;BME280;3465;42.144;24.722;2023-07-08T01:23:16;148849.75;;;23.68;82.30
6853;BME280;3465;42.144;24.722;2023-07-08T01:25:43;148851.03;;;23.68;82.62
6853;BME280;3465;42.144;24.722;2023-07-08T01:28:09;148847.19;;;23.67;82.64
6853;BME280;3465;42.144;24.722;2023-07-08T01:30:36;148840.88;;;23.64;82.27
6853;BME280;3465;42.144;24.722;2023-07-08T01:33:09;148813.03;;;23.53;83.22
6853;BME280;3465;42.144;24.722;2023-07-08T01:35:37;148807.97;;;23.51;83.16
6853;BME280;3465;42.144;24.722;2023-07-08T01:38:03;148789.00;;;23.44;83.11
6853;BME280;3465;42.144;24.722;2023-07-08T01:40:35;148813.03;;;23.53;83.03
6853;BME280;3465;42.144;24.722;2023-07-08T01:43:02;148821.91;;;23.57;82.84
6853;BME280;3465;42.144;24.722;2023-07-08T01:45:33;148837.09;;;23.63;82.11
6853;BME280;3465;42.144;24.722;2023-07-08T01:48:03;148829.50;;;23.60;82.28
6853;BME280;3465;42.144;24.722;2023-07-08T01:50:31;148825.72;;;23.58;82.35
6853;BME280;3465;42.144;24.722;2023-07-08T01:52:59;148813.03;;;23.53;82.40
6853;BME280;3465;42.144;24.722;2023-07-08T01:55:27;148814.31;;;23.54;82.25
6853;BME280;3465;42.144;24.722;2023-07-08T01:57:54;148776.34;;;23.39;82.84
6853;BME280;3465;42.144;24.722;2023-07-08T02:00:20;148773.81;;;23.38;83.21
6853;BME280;3465;42.144;24.722;2023-07-08T02:02:48;148767.47;;;23.35;83.11
6853;BME280;3465;42.144;24.722;2023-07-08T02:05:14;148757.38;;;23.31;82.93
6853;BME280;3465;42.144;24.722;2023-07-08T02:07:39;148764.97;;;23.34;82.81
6853;BME280;3465;42.144;24.722;2023-07-08T02:10:05;148783.94;;;23.42;82.44
6853;BME280;3465;42.144;24.722;2023-07-08T02:12:31;148762.41;;;23.33;82.95
6853;BME280;3465;42.144;24.722;2023-07-08T02:14:59;148768.75;;;23.36;82.50
6853;BME280;3465;42.144;24.722;2023-07-08T02:17:25;148766.19;;;23.35;82.87
6853;BME280;3465;42.144;24.722;2023-07-08T02:19:50;148758.59;;;23.32;82.72
6853;BME280;3465;42.144;24.722;2023-07-08T02:22:15;148758.59;;;23.32;82.64
6853;BME280;3465;42.144;24.722;2023-07-08T02:24:41;148757.38;;;23.31;82.59
6853;BME280;3465;42.144;24.722;2023-07-08T02:27:06;148744.72;;;23.26;83.02
6853;BME280;3465;42.144;24.722;2023-07-08T02:29:32;148724.41;;;23.18;82.98
6853;BME280;3465;42.144;24.722;2023-07-08T02:31:57;148730.72;;;23.21;82.86
6853;BME280;3465;42.144;24.722;2023-07-08T02:34:23;148729.50;;;23.20;83.27
6853;BME280;3465;42.144;24.722;2023-07-08T02:36:48;148719.34;;;23.16;83.02
6853;BME280;3465;42.144;24.722;2023-07-08T02:39:13;148719.34;;;23.16;83.11
6853;BME280;3465;42.144;24.722;2023-07-08T02:41:39;148716.84;;;23.15;83.06
6853;BME280;3465;42.144;24.722;2023-07-08T02:44:04;148707.97;;;23.12;83.26
6853;BME280;3465;42.144;24.722;2023-07-08T02:46:30;148692.78;;;23.06;83.40
6853;BME280;3465;42.144;24.722;2023-07-08T02:48:55;148690.22;;;23.05;83.41
6853;BME280;3465;42.144;24.722;2023-07-08T02:51:21;148696.59;;;23.07;83.16
6853;BME280;3465;42.144;24.722;2023-07-08T02:53:49;148678.84;;;23.00;83.86
6853;BME280;3465;42.144;24.722;2023-07-08T02:56:15;148647.25;;;22.88;83.86
6853;BME280;3465;42.144;24.722;2023-07-08T02:58:41;148656.09;;;22.91;84.05
6853;BME280;3465;42.144;24.722;2023-07-08T03:01:06;148661.13;;;22.93;83.72
6853;BME280;3465;42.144;24.722;2023-07-08T03:03:31;148620.66;;;22.77;84.10
6853;BME280;3465;42.144;24.722;2023-07-08T03:06:00;148676.34;;;22.99;83.07
6853;BME280;3465;42.144;24.722;2023-07-08T03:08:26;148689.00;;;23.04;82.78
6853;BME280;3465;42.144;24.722;2023-07-08T03:10:57;148682.66;;;23.02;82.70
6853;BME280;3465;42.144;24.722;2023-07-08T03:13:23;148668.75;;;22.96;82.96
6853;BME280;3465;42.144;24.722;2023-07-08T03:15:49;148656.09;;;22.91;82.75
6853;BME280;3465;42.144;24.722;2023-07-08T03:18:15;148678.84;;;23.00;82.56
6853;BME280;3465;42.144;24.722;2023-07-08T03:20:41;148671.28;;;22.97;82.34
6853;BME280;3465;42.144;24.722;2023-07-08T03:23:10;148663.69;;;22.94;82.26
6853;BME280;3465;42.144;24.722;2023-07-08T03:25:35;148668.75;;;22.96;82.47
6853;BME280;3465;42.144;24.722;2023-07-08T03:28:02;148659.91;;;22.93;82.73
6853;BME280;3465;42.144;24.722;2023-07-08T03:30:29;148629.50;;;22.81;83.15
6853;BME280;3465;42.144;24.722;2023-07-08T03:32:54;148670.00;;;22.97;82.89
6853;BME280;3465;42.144;24.722;2023-07-08T03:37:47;148663.69;;;22.94;82.70
6853;BME280;3465;42.144;24.722;2023-07-08T03:40:13;148659.91;;;22.93;82.77
6853;BME280;3465;42.144;24.722;2023-07-08T03:42:38;148643.44;;;22.86;83.40
6853;BME280;3465;42.144;24.722;2023-07-08T03:45:04;148643.44;;;22.86;82.86
6853;BME280;3465;42.144;24.722;2023-07-08T03:47:30;148642.16;;;22.86;82.98
6853;BME280;3465;42.144;24.722;2023-07-08T03:49:55;148602.97;;;22.70;83.98
6853;BME280;3465;42.144;24.722;2023-07-08T03:52:21;148606.75;;;22.72;84.21
6853;BME280;3465;42.144;24.722;2023-07-08T03:54:46;148592.81;;;22.66;84.26
6853;BME280;3465;42.144;24.722;2023-07-08T03:57:12;148583.97;;;22.62;85.00
6853;BME280;3465;42.144;24.722;2023-07-08T03:59:38;148578.94;;;22.60;84.98
6853;BME280;3465;42.144;24.722;2023-07-08T04:02:04;148605.47;;;22.71;84.47
6853;BME280;3465;42.144;24.722;2023-07-08T04:04:29;148623.22;;;22.78;83.96
6853;BME280;3465;42.144;24.722;2023-07-08T04:06:54;148637.09;;;22.84;84.16
6853;BME280;3465;42.144;24.722;2023-07-08T04:09:20;148642.16;;;22.86;84.15
6853;BME280;3465;42.144;24.722;2023-07-08T04:11:45;148658.63;;;22.92;83.94
6853;BME280;3465;42.144;24.722;2023-07-08T04:14:11;148656.09;;;22.91;83.48
6853;BME280;3465;42.144;24.722;2023-07-08T04:19:12;148683.94;;;23.02;83.34
6853;BME280;3465;42.144;24.722;2023-07-08T04:21:40;148729.50;;;23.20;82.89
6853;BME280;3465;42.144;24.722;2023-07-08T04:24:06;148759.88;;;23.32;82.75
6853;BME280;3465;42.144;24.722;2023-07-08T04:26:31;148759.88;;;23.32;82.16
6853;BME280;3465;42.144;24.722;2023-07-08T04:29:01;148767.47;;;23.35;82.46
6853;BME280;3465;42.144;24.722;2023-07-08T04:31:26;148783.94;;;23.42;82.06
6853;BME280;3465;42.144;24.722;2023-07-08T04:33:51;148807.97;;;23.51;81.28
6853;BME280;3465;42.144;24.722;2023-07-08T04:36:17;148796.59;;;23.47;81.43
6853;BME280;3465;42.144;24.722;2023-07-08T04:38:42;148799.09;;;23.48;81.98
6853;BME280;3465;42.144;24.722;2023-07-08T04:41:11;148810.53;;;23.52;81.48
6853;BME280;3465;42.144;24.722;2023-07-08T04:43:37;148807.97;;;23.51;80.66
6853;BME280;3465;42.144;24.722;2023-07-08T04:46:05;148843.41;;;23.65;80.86
6853;BME280;3465;42.144;24.722;2023-07-08T04:48:40;148881.38;;;23.80;80.31
6853;BME280;3465;42.144;24.722;2023-07-08T04:51:05;148891.53;;;23.84;79.09
6853;BME280;3465;42.144;24.722;2023-07-08T04:53:31;148913.03;;;23.93;79.15
6853;BME280;3465;42.144;24.722;2023-07-08T04:55:56;148929.53;;;23.99;78.94
6853;BME280;3465;42.144;24.722;2023-07-08T04:58:22;148937.13;;;24.02;78.41
6853;BME280;3465;42.144;24.722;2023-07-08T05:00:48;148943.50;;;24.05;78.43
6853;BME280;3465;42.144;24.722;2023-07-08T05:03:13;148953.59;;;24.09;78.35
6853;BME280;3465;42.144;24.722;2023-07-08T05:05:38;148946.00;;;24.06;77.98
6853;BME280;3465;42.144;24.722;2023-07-08T05:08:04;148985.25;;;24.22;77.39
6853;BME280;3465;42.144;24.722;2023-07-08T05:10:30;148963.75;;;24.13;76.96
6853;BME280;3465;42.144;24.722;2023-07-08T05:12:55;148981.44;;;24.20;76.51
6853;BME280;3465;42.144;24.722;2023-07-08T05:15:20;148962.47;;;24.13;77.02
6853;BME280;3465;42.144;24.722;2023-07-08T05:17:47;148927.03;;;23.98;77.42
6853;BME280;3465;42.144;24.722;2023-07-08T05:20:13;148937.13;;;24.02;78.09
6853;BME280;3465;42.144;24.722;2023-07-08T05:22:39;148967.53;;;24.15;77.65
6853;BME280;3465;42.144;24.722;2023-07-08T05:25:06;148981.44;;;24.20;77.53
6853;BME280;3465;42.144;24.722;2023-07-08T05:27:32;149006.78;;;24.30;75.93
6853;BME280;3465;42.144;24.722;2023-07-08T05:30:02;149010.59;;;24.32;76.54
6853;BME280;3465;42.144;24.722;2023-07-08T05:32:27;149001.72;;;24.28;77.35
6853;BME280;3465;42.144;24.722;2023-07-08T05:34:53;149043.50;;;24.45;75.81
6853;BME280;3465;42.144;24.722;2023-07-08T05:37:18;149041.00;;;24.44;75.33
6853;BME280;3465;42.144;24.722;2023-07-08T05:39:46;149073.94;;;24.57;74.32
6853;BME280;3465;42.144;24.722;2023-07-08T05:42:12;149119.56;;;24.75;74.36
6853;BME280;3465;42.144;24.722;2023-07-08T05:44:37;149151.22;;;24.87;74.34
6853;BME280;3465;42.144;24.722;2023-07-08T05:47:03;149227.28;;;25.17;72.33
6853;BME280;3465;42.144;24.722;2023-07-08T05:49:28;149229.78;;;25.18;70.89
6853;BME280;3465;42.144;24.722;2023-07-08T05:51:53;149241.19;;;25.23;72.35
6853;BME280;3465;42.144;24.722;2023-07-08T05:54:19;149234.88;;;25.20;71.18
6853;BME280;3465;42.144;24.722;2023-07-08T05:56:44;149245.00;;;25.24;71.25
6853;BME280;3465;42.144;24.722;2023-07-08T05:59:10;149245.00;;;25.24;70.46
6853;BME280;3465;42.144;24.722;2023-07-08T06:01:36;149246.28;;;25.25;71.11
6853;BME280;3465;42.144;24.722;2023-07-08T06:04:02;149241.19;;;25.23;70.15
6853;BME280;3465;42.144;24.722;2023-07-08T06:06:27;149233.59;;;25.20;69.26
6853;BME280;3465;42.144;24.722;2023-07-08T06:08:53;149217.13;;;25.13;69.87
6853;BME280;3465;42.144;24.722;2023-07-08T06:11:19;149248.78;;;25.26;70.57
6853;BME280;3465;42.144;24.722;2023-07-08T06:13:45;149271.69;;;25.35;70.04
6853;BME280;3465;42.144;24.722;2023-07-08T06:16:10;149293.19;;;25.44;68.46
6853;BME280;3465;42.144;24.722;2023-07-08T06:18:36;149304.63;;;25.48;68.60
6853;BME280;3465;42.144;24.722;2023-07-08T06:21:01;149319.84;;;25.54;68.21
6853;BME280;3465;42.144;24.722;2023-07-08T06:23:27;149352.78;;;25.67;67.65
6853;BME280;3465;42.144;24.722;2023-07-08T06:25:54;149326.16;;;25.57;68.64
6853;BME280;3465;42.144;24.722;2023-07-08T06:28:20;149319.84;;;25.54;68.60
6853;BME280;3465;42.144;24.722;2023-07-08T06:30:46;149322.34;;;25.55;68.40
6853;BME280;3465;42.144;24.722;2023-07-08T06:33:11;149357.88;;;25.69;67.22
6853;BME280;3465;42.144;24.722;2023-07-08T06:35:38;149412.38;;;25.91;67.69
6853;BME280;3465;42.144;24.722;2023-07-08T06:38:06;149446.66;;;26.04;67.90
6853;BME280;3465;42.144;24.722;2023-07-08T06:40:33;149513.88;;;26.31;65.35
6853;BME280;3465;42.144;24.722;2023-07-08T06:42:58;149563.34;;;26.50;64.26
6853;BME280;3465;42.144;24.722;2023-07-08T06:45:23;149591.25;;;26.61;62.03
6853;BME280;3465;42.144;24.722;2023-07-08T06:47:49;149636.97;;;26.80;61.75
6853;BME280;3465;42.144;24.722;2023-07-08T06:50:15;149699.09;;;27.04;61.52
6853;BME280;3465;42.144;24.722;2023-07-08T06:52:40;149732.09;;;27.17;59.93
6853;BME280;3465;42.144;24.722;2023-07-08T06:55:09;149766.44;;;27.31;60.53
6853;BME280;3465;42.144;24.722;2023-07-08T06:57:35;149836.25;;;27.58;58.57
6853;BME280;3465;42.144;24.722;2023-07-08T07:00:01;149883.22;;;27.77;57.12
6853;BME280;3465;42.144;24.722;2023-07-08T07:02:28;149945.50;;;28.01;55.86
6853;BME280;3465;42.144;24.722;2023-07-08T07:04:53;149981.03;;;28.16;55.70
6853;BME280;3465;42.144;24.722;2023-07-08T07:07:20;150015.34;;;28.29;53.95
6853;BME280;3465;42.144;24.722;2023-07-08T07:09:45;150104.31;;;28.64;53.89
6853;BME280;3465;42.144;24.722;2023-07-08T07:12:11;150179.25;;;28.94;52.63
6853;BME280;3465;42.144;24.722;2023-07-08T07:14:36;150264.41;;;29.27;51.59
6853;BME280;3465;42.144;24.722;2023-07-08T07:17:02;150349.59;;;29.61;50.08
6853;BME280;3465;42.144;24.722;2023-07-08T07:19:27;150469.16;;;30.08;47.57
6853;BME280;3465;42.144;24.722;2023-07-08T07:21:53;150615.47;;;30.66;46.76
6853;BME280;3465;42.144;24.722;2023-07-08T07:24:18;150717.31;;;31.06;45.50
6853;BME280;3465;42.144;24.722;2023-07-08T07:26:44;150591.31;;;30.56;45.71
6853;BME280;3465;42.144;24.722;2023-07-08T07:29:09;150560.81;;;30.44;46.43
6853;BME280;3465;42.144;24.722;2023-07-08T07:31:35;150498.41;;;30.20;47.08
6853;BME280;3465;42.144;24.722;2023-07-08T07:34:01;150457.72;;;30.04;47.51
6853;BME280;3465;42.144;24.722;2023-07-08T07:36:27;150403.03;;;29.82;48.35
6853;BME280;3465;42.144;24.722;2023-07-08T07:38:54;150361.13;;;29.66;48.59
6853;BME280;3465;42.144;24.722;2023-07-08T07:41:19;150258.09;;;29.25;50.15
6853;BME280;3465;42.144;24.722;2023-07-08T07:43:45;150289.84;;;29.37;50.01
6853;BME280;3465;42.144;24.722;2023-07-08T07:46:11;150515.00;;;30.26;47.41
6853;BME280;3465;42.144;24.722;2023-07-08T07:48:37;150900.66;;;31.78;44.06
6853;BME280;3465;42.144;24.722;2023-07-08T07:51:04;151184.78;;;32.90;40.76
6853;BME280;3465;42.144;24.722;2023-07-08T07:53:29;151451.25;;;33.95;38.59
6853;BME280;3465;42.144;24.722;2023-07-08T07:56:02;151706.44;;;34.96;36.60
6853;BME280;3465;42.144;24.722;2023-07-08T07:58:29;151960.44;;;35.95;35.01
6853;BME280;3465;42.144;24.722;2023-07-08T08:00:55;152024.31;;;36.21;33.42
6853;BME280;3465;42.144;24.722;2023-07-08T08:03:21;151877.47;;;35.63;34.25
6853;BME280;3465;42.144;24.722;2023-07-08T08:05:47;151858.28;;;35.55;34.55
6853;BME280;3465;42.144;24.722;2023-07-08T08:08:12;151943.91;;;35.89;34.51
6853;BME280;3465;42.144;24.722;2023-07-08T08:10:37;152140.53;;;36.66;32.60
6853;BME280;3465;42.144;24.722;2023-07-08T08:13:03;152296.47;;;37.27;31.24
6853;BME280;3465;42.144;24.722;2023-07-08T08:15:29;152355.25;;;37.51;30.61
6853;BME280;3465;42.144;24.722;2023-07-08T08:17:54;152518.94;;;38.15;29.84
6853;BME280;3465;42.144;24.722;2023-07-08T08:20:22;152557.31;;;38.30;29.61
6853;BME280;3465;42.144;24.722;2023-07-08T08:22:48;152750.44;;;39.06;28.95
6853;BME280;3465;42.144;24.722;2023-07-08T08:25:15;152736.41;;;39.00;28.95
6853;BME280;3465;42.144;24.722;2023-07-08T08:27:40;152673.69;;;38.76;29.11
6853;BME280;3465;42.144;24.722;2023-07-08T08:30:06;152735.06;;;39.00;28.76
6853;BME280;3465;42.144;24.722;2023-07-08T08:32:32;152824.63;;;39.35;28.00
6853;BME280;3465;42.144;24.722;2023-07-08T08:34:57;152759.41;;;39.09;28.79
6853;BME280;3465;42.144;24.722;2023-07-08T08:37:22;152859.22;;;39.48;27.69
6853;BME280;3465;42.144;24.722;2023-07-08T08:39:48;152824.63;;;39.35;28.24
6853;BME280;3465;42.144;24.722;2023-07-08T08:42:24;152984.66;;;39.98;27.39
6853;BME280;3465;42.144;24.722;2023-07-08T08:44:51;152937.28;;;39.79;27.83
6853;BME280;3465;42.144;24.722;2023-07-08T08:49:57;153011.56;;;40.08;26.57
6853;BME280;3465;42.144;24.722;2023-07-08T08:52:26;153165.16;;;40.68;25.52
6853;BME280;3465;42.144;24.722;2023-07-08T08:54:51;153094.75;;;40.41;25.53
6853;BME280;3465;42.144;24.722;2023-07-08T08:57:37;153089.66;;;40.39;25.87
6853;BME280;3465;42.144;24.722;2023-07-08T09:00:08;152796.50;;;39.24;26.97
6853;BME280;3465;42.144;24.722;2023-07-08T09:05:08;152373.16;;;37.58;29.33
6853;BME280;3465;42.144;24.722;2023-07-08T09:10:47;152461.38;;;37.92;28.24
6853;BME280;3465;42.144;24.722;2023-07-08T09:13:23;152213.44;;;36.95;29.34
6853;BME280;3465;42.144;24.722;2023-07-08T09:15:54;152130.34;;;36.62;30.66
6853;BME280;3465;42.144;24.722;2023-07-08T09:18:28;152007.72;;;36.14;30.52
6853;BME280;3465;42.144;24.722;2023-07-08T09:20:58;151873.66;;;35.61;31.57
6853;BME280;3465;42.144;24.722;2023-07-08T09:23:32;151729.41;;;35.05;32.51
6853;BME280;3465;42.144;24.722;2023-07-08T09:26:11;151498.47;;;34.14;33.59
6853;BME280;3465;42.144;24.722;2023-07-08T09:28:40;151331.41;;;33.48;34.74
6853;BME280;3465;42.144;24.722;2023-07-08T09:31:07;151216.66;;;33.03;35.92
6853;BME280;3465;42.144;24.722;2023-07-08T09:33:37;151340.31;;;33.52;35.15
6853;BME280;3465;42.144;24.722;2023-07-08T09:36:16;151365.81;;;33.62;34.89
6853;BME280;3465;42.144;24.722;2023-07-08T09:38:42;151481.88;;;34.07;35.05
6853;BME280;3465;42.144;24.722;2023-07-08T09:41:07;151583.94;;;34.47;34.13
6853;BME280;3465;42.144;24.722;2023-07-08T09:43:35;151872.34;;;35.61;32.40
6853;BME280;3465;42.144;24.722;2023-07-08T09:46:03;151743.44;;;35.10;33.13
6853;BME280;3465;42.144;24.722;2023-07-08T09:48:34;151835.34;;;35.46;32.86
6853;BME280;3465;42.144;24.722;2023-07-08T09:50:59;152028.13;;;36.22;31.92
6853;BME280;3465;42.144;24.722;2023-07-08T09:53:25;152079.22;;;36.42;31.43
6853;BME280;3465;42.144;24.722;2023-07-08T09:55:57;152374.41;;;37.58;30.00
6853;BME280;3465;42.144;24.722;2023-07-08T09:58:27;152682.63;;;38.79;28.18
6853;BME280;3465;42.144;24.722;2023-07-08T10:00:57;152683.94;;;38.80;28.12
6853;BME280;3465;42.144;24.722;2023-07-08T10:03:32;152763.22;;;39.11;28.38
6853;BME280;3465;42.144;24.722;2023-07-08T10:06:03;152612.25;;;38.51;28.09
6853;BME280;3465;42.144;24.722;2023-07-08T10:08:42;152660.88;;;38.71;28.22
6853;BME280;3465;42.144;24.722;2023-07-08T10:13:48;152561.13;;;38.31;28.14
6853;BME280;3465;42.144;24.722;2023-07-08T10:16:30;152553.44;;;38.28;28.23
6853;BME280;3465;42.144;24.722;2023-07-08T10:18:58;152375.72;;;37.59;28.65
6853;BME280;3465;42.144;24.722;2023-07-08T10:27:37;152258.13;;;37.12;29.74
6853;BME280;3465;42.144;24.722;2023-07-08T10:30:26;152166.09;;;36.76;30.13
6853;BME280;3465;42.144;24.722;2023-07-08T10:35:33;152246.59;;;37.08;29.58
6853;BME280;3465;42.144;24.722;2023-07-08T10:38:23;152416.66;;;37.75;28.66
6853;BME280;3465;42.144;24.722;2023-07-08T10:41:00;152718.44;;;38.93;27.83
6853;BME280;3465;42.144;24.722;2023-07-08T10:43:51;152658.34;;;38.70;27.68
6853;BME280;3465;42.144;24.722;2023-07-08T10:58:13;152991.06;;;40.00;25.55
6853;BME280;3465;42.144;24.722;2023-07-08T11:06:22;152852.81;;;39.46;26.27
6853;BME280;3465;42.144;24.722;2023-07-08T11:08:57;153019.22;;;40.11;25.63
6853;BME280;3465;42.144;24.722;2023-07-08T11:16:40;153345.78;;;41.39;24.46
6853;BME280;3465;42.144;24.722;2023-07-08T11:19:24;153393.22;;;41.58;23.47
6853;BME280;3465;42.144;24.722;2023-07-08T11:21:54;153247.16;;;41.00;23.62
6853;BME280;3465;42.144;24.722;2023-07-08T11:27:10;153074.28;;;40.33;24.99
6853;BME280;3465;42.144;24.722;2023-07-08T11:29:56;153028.19;;;40.15;26.11
6853;BME280;3465;42.144;24.722;2023-07-08T11:32:26;153094.75;;;40.41;25.16
6853;BME280;3465;42.144;24.722;2023-07-08T11:34:53;153007.72;;;40.07;25.06
6853;BME280;3465;42.144;24.722;2023-07-08T11:37:21;153015.38;;;40.10;24.98
6853;BME280;3465;42.144;24.722;2023-07-08T11:40:00;153007.72;;;40.07;24.89
6853;BME280;3465;42.144;24.722;2023-07-08T11:42:35;152820.78;;;39.33;25.86
6853;BME280;3465;42.144;24.722;2023-07-08T11:47:49;152626.38;;;38.57;27.74
6853;BME280;3465;42.144;24.722;2023-07-08T11:55:27;152414.09;;;37.74;28.64
6853;BME280;3465;42.144;24.722;2023-07-08T11:58:00;152226.16;;;37.00;29.80
6853;BME280;3465;42.144;24.722;2023-07-08T12:00:30;152301.59;;;37.29;28.75
6853;BME280;3465;42.144;24.722;2023-07-08T12:02:59;152323.34;;;37.38;29.27
6853;BME280;3465;42.144;24.722;2023-07-08T12:05:31;152264.50;;;37.15;29.89
6853;BME280;3465;42.144;24.722;2023-07-08T12:07:57;152129.06;;;36.62;29.90
6853;BME280;3465;42.144;24.722;2023-07-08T12:11:07;152221.09;;;36.98;29.30
6853;BME280;3465;42.144;24.722;2023-07-08T12:13:24;152362.91;;;37.54;28.02
6853;BME280;3465;42.144;24.722;2023-07-08T12:15:50;152322.03;;;37.38;28.60
6853;BME280;3465;42.144;24.722;2023-07-08T12:18:21;152242.75;;;37.06;29.38
6853;BME280;3465;42.144;24.722;2023-07-08T12:20:54;152281.09;;;37.21;29.40
6853;BME280;3465;42.144;24.722;2023-07-08T12:23:21;152253.00;;;37.10;28.05
6853;BME280;3465;42.144;24.722;2023-07-08T12:25:48;152238.94;;;37.05;28.65
6853;BME280;3465;42.144;24.722;2023-07-08T12:28:14;152016.66;;;36.18;28.84
6853;BME280;3465;42.144;24.722;2023-07-08T12:30:42;152121.41;;;36.59;30.39
6853;BME280;3465;42.144;24.722;2023-07-08T12:33:33;152039.63;;;36.27;29.67
6853;BME280;3465;42.144;24.722;2023-07-08T12:36:00;152118.84;;;36.58;30.06
6853;BME280;3465;42.144;24.722;2023-07-08T12:38:37;152139.28;;;36.66;29.98
6853;BME280;3465;42.144;24.722;2023-07-08T12:41:10;152180.22;;;36.82;29.88
6853;BME280;3465;42.144;24.722;2023-07-08T12:43:36;152283.63;;;37.22;29.38
6853;BME280;3465;42.144;24.722;2023-07-08T12:46:02;152334.81;;;37.43;28.46
6853;BME280;3465;42.144;24.722;2023-07-08T12:48:38;152074.16;;;36.40;29.77
6853;BME280;3465;42.144;24.722;2023-07-08T12:51:05;151795.75;;;35.31;31.46
6853;BME280;3465;42.144;24.722;2023-07-08T12:53:31;151862.16;;;35.57;31.50
6853;BME280;3465;42.144;24.722;2023-07-08T12:55:59;151857.06;;;35.55;30.51
6853;BME280;3465;42.144;24.722;2023-07-08T12:58:27;151855.75;;;35.54;31.28
6853;BME280;3465;42.144;24.722;2023-07-08T13:00:55;151871.06;;;35.60;31.95
6853;BME280;3465;42.144;24.722;2023-07-08T13:03:24;151886.41;;;35.66;32.17
6853;BME280;3465;42.144;24.722;2023-07-08T13:05:52;151851.94;;;35.53;31.74
6853;BME280;3465;42.144;24.722;2023-07-08T13:08:21;151751.09;;;35.13;33.19
6853;BME280;3465;42.144;24.722;2023-07-08T13:10:49;151501.00;;;34.15;33.30
6853;BME280;3465;42.144;24.722;2023-07-08T13:13:22;151437.22;;;33.90;34.96
6853;BME280;3465;42.144;24.722;2023-07-08T13:15:48;151249.81;;;33.16;35.42
6853;BME280;3465;42.144;24.722;2023-07-08T13:18:43;151164.34;;;32.82;35.95
6853;BME280;3465;42.144;24.722;2023-07-08T13:21:15;151147.84;;;32.76;37.37
6853;BME280;3465;42.144;24.722;2023-07-08T13:23:44;150979.66;;;32.10;41.32
6853;BME280;3465;42.144;24.722;2023-07-08T13:26:16;150878.97;;;31.70;44.73
6853;BME280;3465;42.144;24.722;2023-07-08T13:28:43;150637.13;;;30.74;49.05
6853;BME280;3465;42.144;24.722;2023-07-08T13:31:23;150470.44;;;30.09;54.35
6853;BME280;3465;42.144;24.722;2023-07-08T13:33:54;150348.34;;;29.61;55.38
6853;BME280;3465;42.144;24.722;2023-07-08T13:36:29;150286.03;;;29.36;57.50
6853;BME280;3465;42.144;24.722;2023-07-08T13:38:57;150228.84;;;29.13;57.30
6853;BME280;3465;42.144;24.722;2023-07-08T13:41:23;150202.13;;;29.03;57.21
6853;BME280;3465;42.144;24.722;2023-07-08T13:43:49;150249.19;;;29.21;56.68
6853;BME280;3465;42.144;24.722;2023-07-08T13:49:58;150284.75;;;29.35;55.09
6853;BME280;3465;42.144;24.722;2023-07-08T13:54:42;150380.16;;;29.73;52.82
6853;BME280;3465;42.144;24.722;2023-07-08T13:57:10;150325.44;;;29.52;53.35
6853;BME280;3465;42.144;24.722;2023-07-08T13:59:36;150288.56;;;29.37;53.51
6853;BME280;3465;42.144;24.722;2023-07-08T14:02:14;150319.09;;;29.49;53.58
6853;BME280;3465;42.144;24.722;2023-07-08T14:04:40;150277.13;;;29.32;54.31
6853;BME280;3465;42.144;24.722;2023-07-08T14:07:18;150053.41;;;28.44;56.45
6853;BME280;3465;42.144;24.722;2023-07-08T14:09:44;149959.44;;;28.07;58.78
6853;BME280;3465;42.144;24.722;2023-07-08T14:12:09;149934.06;;;27.97;60.13
6853;BME280;3465;42.144;24.722;2023-07-08T14:14:35;149821.00;;;27.52;66.30